createdAt,value
2023-04-21T00:04:07.630Z,2.35
2023-04-21T00:09:11.473Z,2.80
2023-04-21T00:14:14.551Z,3.17
2023-04-21T00:19:18.247Z,3.20
2023-04-21T00:24:21.179Z,3.00
2023-04-21T00:29:23.961Z,2.88
2023-04-21T00:34:26.834Z,3.70
2023-04-21T00:39:29.497Z,3.42
2023-04-21T00:44:32.339Z,3.63
2023-04-21T00:49:35.319Z,3.83
2023-04-21T00:54:38.364Z,3.25
2023-04-21T00:59:41.315Z,3.80
2023-04-21T01:04:46.270Z,3.92
2023-04-21T01:09:48.916Z,4.40
2023-04-21T01:14:51.687Z,3.80
2023-04-21T01:19:57.912Z,4.63
2023-04-21T01:25:01.795Z,4.35
2023-04-21T01:30:07.856Z,4.25
2023-04-21T01:35:11.373Z,4.70
2023-04-21T01:40:15.124Z,5.65
2023-04-21T01:45:18.066Z,4.80
2023-04-21T01:50:20.897Z,5.72
2023-04-21T01:55:23.746Z,5.82
2023-04-21T02:00:27.102Z,4.75
2023-04-21T02:05:29.845Z,5.90
2023-04-21T02:10:32.646Z,5.35
2023-04-21T02:15:35.423Z,5.93
2023-04-21T02:20:38.292Z,6.32
2023-04-21T02:25:42.632Z,6.03
2023-04-21T02:30:45.591Z,6.03
2023-04-21T02:35:48.432Z,6.53
2023-04-21T02:40:51.430Z,6.05
2023-04-21T02:45:55.301Z,6.30
2023-04-21T02:50:58.213Z,5.82
2023-04-21T02:56:02.917Z,6.10
2023-04-21T03:01:06.857Z,5.75
2023-04-21T03:06:10.794Z,5.93
2023-04-21T03:11:15.190Z,5.40
2023-04-21T03:16:18.389Z,6.22
2023-04-21T03:21:21.155Z,6.10
2023-04-21T03:26:24.458Z,6.20
2023-04-21T03:31:27.379Z,5.68
2023-04-21T03:36:30.258Z,5.97
2023-04-21T03:41:34.319Z,6.25
2023-04-21T03:46:37.232Z,6.30
2023-04-21T03:51:40.012Z,5.63
2023-04-21T03:56:42.829Z,6.03
2023-04-21T04:01:45.896Z,6.13
2023-04-21T04:06:48.785Z,6.15
2023-04-21T04:11:51.541Z,5.97
2023-04-21T04:16:54.322Z,5.90
2023-04-21T04:21:59.256Z,5.82
2023-04-21T04:27:03.746Z,6.15
2023-04-21T04:32:07.076Z,6.80
2023-04-21T04:37:11.489Z,5.90
2023-04-21T04:42:14.797Z,6.18
2023-04-21T04:47:17.819Z,6.55
2023-04-21T04:52:20.607Z,7.13
2023-04-21T04:57:23.397Z,5.15
2023-04-21T05:02:26.337Z,5.53
2023-04-21T05:07:29.297Z,5.70
2023-04-21T05:12:34.916Z,6.20
2023-04-21T05:22:41.103Z,4.75
2023-04-21T05:27:44.083Z,5.63
2023-04-21T05:32:46.807Z,5.80
2023-04-21T05:37:49.695Z,5.65
2023-04-21T05:42:52.496Z,5.50
2023-04-21T05:47:55.592Z,5.60
2023-04-21T05:52:58.527Z,5.20
2023-04-21T05:58:01.257Z,5.15
2023-04-21T06:03:04.441Z,4.70
2023-04-21T06:08:07.528Z,4.47
2023-04-21T06:13:10.202Z,4.25
2023-04-21T06:18:12.938Z,3.38
2023-04-21T06:23:15.773Z,3.22
2023-04-21T06:28:18.659Z,3.17
2023-04-21T06:33:21.431Z,3.63
2023-04-21T06:38:24.490Z,3.85
2023-04-21T06:43:27.282Z,2.70
2023-04-21T06:48:30.649Z,2.42
2023-04-21T06:53:33.443Z,3.10
2023-04-21T06:58:36.268Z,3.17
2023-04-21T07:03:39.087Z,2.30
2023-04-21T07:08:42.155Z,2.92
2023-04-21T07:13:44.830Z,2.55
2023-04-21T07:18:47.686Z,2.80
2023-04-21T07:23:50.687Z,3.28
2023-04-21T07:28:53.789Z,3.00
2023-04-21T07:33:56.682Z,3.65
2023-04-21T07:38:59.413Z,3.03
2023-04-21T07:44:02.094Z,3.30
2023-04-21T07:49:04.878Z,2.70
2023-04-21T07:54:07.647Z,2.95
2023-04-21T07:59:10.644Z,3.15
2023-04-21T08:04:13.580Z,2.55
2023-04-21T08:09:16.472Z,2.90
2023-04-21T08:14:19.453Z,3.60
2023-04-21T08:19:22.731Z,3.08
2023-04-21T08:24:25.863Z,3.60
2023-04-21T08:29:29.150Z,4.82
2023-04-21T08:34:31.921Z,3.20
2023-04-21T08:39:34.683Z,3.05
2023-04-21T08:44:37.958Z,2.92
2023-04-21T08:49:43.005Z,3.60
2023-04-21T08:54:47.832Z,3.05
2023-04-21T08:59:50.712Z,3.60
2023-04-21T09:04:56.056Z,3.53
2023-04-21T09:10:01.573Z,3.13
2023-04-21T09:15:07.611Z,3.42
2023-04-21T09:20:16.205Z,3.45
2023-04-21T09:25:22.767Z,2.83
2023-04-21T09:30:26.033Z,4.25
2023-04-21T09:35:30.433Z,2.97
2023-04-21T09:40:35.040Z,3.30
2023-04-21T09:45:40.490Z,3.80
2023-04-21T09:51:11.428Z,2.75
2023-04-21T09:56:10.568Z,2.97
2023-04-21T10:01:14.792Z,2.50
2023-04-21T10:06:17.712Z,3.35
2023-04-21T10:11:20.687Z,3.25
2023-04-21T10:16:23.682Z,3.08
2023-04-21T10:21:27.264Z,3.00
2023-04-21T10:26:35.941Z,3.45
2023-04-21T10:31:54.783Z,3.97
2023-04-21T10:37:00.237Z,2.78
2023-04-21T10:42:21.214Z,2.80
2023-04-21T10:47:41.752Z,3.97
2023-04-21T10:52:46.604Z,3.45
2023-04-21T10:57:49.743Z,3.00
2023-04-21T11:03:01.504Z,4.07
2023-04-21T11:08:06.115Z,3.90
2023-04-21T11:13:09.050Z,3.63
2023-04-21T11:18:11.898Z,4.05
2023-04-21T11:23:19.235Z,4.18
2023-04-21T11:28:23.253Z,3.30
2023-04-21T11:33:29.715Z,3.53
2023-04-21T11:38:42.202Z,3.92
2023-04-21T11:43:46.611Z,3.38
2023-04-21T11:49:02.395Z,4.33
2023-04-21T11:54:07.145Z,5.20
2023-04-21T11:59:14.750Z,5.07
2023-04-21T12:04:24.183Z,4.75
2023-04-21T12:09:27.789Z,5.30
2023-04-21T12:14:33.874Z,5.97
2023-04-21T12:19:42.624Z,5.85
2023-04-21T12:24:46.336Z,7.25
2023-04-21T12:29:49.225Z,7.10
2023-04-21T12:34:51.980Z,7.15
2023-04-21T12:39:54.779Z,7.03
2023-04-21T12:44:57.498Z,7.13
2023-04-21T12:50:00.336Z,6.43
2023-04-21T12:55:03.161Z,7.47
2023-04-21T13:00:09.289Z,7.22
2023-04-21T13:05:13.869Z,7.88
2023-04-21T13:10:16.668Z,8.25
2023-04-21T13:15:19.456Z,9.07
2023-04-21T13:20:22.745Z,9.40
2023-04-21T13:25:31.417Z,8.60
2023-04-21T13:30:35.473Z,7.90
2023-04-21T13:35:38.873Z,8.00
2023-04-21T13:40:41.686Z,7.93
2023-04-21T13:45:44.505Z,8.20
2023-04-21T13:50:47.688Z,7.85
2023-04-21T13:55:50.582Z,8.02
2023-04-21T14:00:53.314Z,8.43
2023-04-21T14:05:56.925Z,7.95
2023-04-21T14:11:01.324Z,8.23
2023-04-21T14:16:04.420Z,7.97
2023-04-21T14:21:07.273Z,8.02
2023-04-21T14:26:10.180Z,8.23
2023-04-21T14:31:13.067Z,8.80
2023-04-21T14:36:15.983Z,9.00
2023-04-21T14:41:19.178Z,8.95
2023-04-21T14:46:22.342Z,8.57
2023-04-21T14:51:25.150Z,7.82
2023-04-21T14:56:28.146Z,8.57
2023-04-21T15:01:31.178Z,10.23
2023-04-21T15:06:34.082Z,9.68
2023-04-21T15:11:36.835Z,10.02
2023-04-21T15:16:39.815Z,10.65
2023-04-21T15:21:42.746Z,9.68
2023-04-21T15:26:46.813Z,8.90
2023-04-21T15:31:49.604Z,9.85
2023-04-21T15:36:52.560Z,9.80
2023-04-21T15:41:55.542Z,10.75
2023-04-21T15:46:58.475Z,10.52
2023-04-21T15:52:03.113Z,9.75
2023-04-21T15:57:06.380Z,10.10
2023-04-21T16:02:09.826Z,10.05
2023-04-21T16:07:14.441Z,9.85
2023-04-21T16:12:18.193Z,9.27
2023-04-21T16:17:21.698Z,9.45
2023-04-21T16:27:29.014Z,9.27
2023-04-21T16:32:31.883Z,8.13
2023-04-21T16:37:37.471Z,8.32
2023-04-21T16:42:40.175Z,9.05
2023-04-21T16:47:43.375Z,7.45
2023-04-21T16:52:46.568Z,8.80
2023-04-21T16:57:49.479Z,7.53
2023-04-21T17:02:52.490Z,7.72
2023-04-21T17:07:55.449Z,8.18
2023-04-21T17:12:58.209Z,8.02
2023-04-21T17:18:01.597Z,7.53
2023-04-21T17:23:04.600Z,7.00
2023-04-21T17:28:07.490Z,7.32
2023-04-21T17:33:33.036Z,7.22
2023-04-21T17:38:36.001Z,7.93
2023-04-21T17:43:38.904Z,8.63
2023-04-21T17:48:41.744Z,8.07
2023-04-21T17:53:44.681Z,7.47
2023-04-21T17:58:47.444Z,7.45
2023-04-21T18:03:50.484Z,7.50
2023-04-21T18:08:53.387Z,8.18
2023-04-21T18:13:56.590Z,7.53
2023-04-21T18:18:59.450Z,7.50
2023-04-21T18:24:02.317Z,7.30
2023-04-21T18:29:05.214Z,7.80
2023-04-21T18:34:09.101Z,7.93
2023-04-21T18:39:11.935Z,7.30
2023-04-21T18:44:16.500Z,6.65
2023-04-21T18:49:19.390Z,7.10
2023-04-21T18:54:22.202Z,7.22
2023-04-21T18:59:25.819Z,7.28
2023-04-21T19:04:28.715Z,6.82
2023-04-21T19:09:31.751Z,7.35
2023-04-21T19:14:45.468Z,6.20
2023-04-21T19:19:49.934Z,6.35
2023-04-21T19:24:56.259Z,6.55
2023-04-21T19:29:59.307Z,6.88
2023-04-21T19:35:02.120Z,6.28
2023-04-21T19:40:08.366Z,5.68
2023-04-21T19:45:11.436Z,5.87
2023-04-21T19:50:14.179Z,6.30
2023-04-21T19:55:17.443Z,6.13
2023-04-21T20:00:20.351Z,6.18
2023-04-21T20:05:23.125Z,6.15
2023-04-21T20:10:26.524Z,6.15
2023-04-21T20:15:29.264Z,6.45
2023-04-21T20:20:32.088Z,5.82
2023-04-21T20:25:34.913Z,6.05
2023-04-21T20:30:37.736Z,6.60
2023-04-21T20:35:44.254Z,5.60
2023-04-21T20:40:50.448Z,7.28
2023-04-21T20:45:53.870Z,6.00
2023-04-21T20:50:56.834Z,6.07
2023-04-21T20:56:00.151Z,6.30
2023-04-21T21:01:03.195Z,6.03
2023-04-21T21:06:06.209Z,6.78
2023-04-21T21:11:08.900Z,7.00
2023-04-21T21:16:11.687Z,7.70
2023-04-21T21:21:14.387Z,6.80
2023-04-21T21:26:17.985Z,8.10
2023-04-21T21:31:20.969Z,7.45
2023-04-21T21:36:23.673Z,7.28
2023-04-21T21:41:26.528Z,6.40
2023-04-21T21:46:29.350Z,7.07
2023-04-21T21:51:32.818Z,7.28
2023-04-21T21:56:36.839Z,6.03
2023-04-21T22:01:39.915Z,6.50
2023-04-21T22:06:42.786Z,6.18
2023-04-21T22:11:46.498Z,6.28
2023-04-21T22:16:50.914Z,5.93
2023-04-21T22:21:53.694Z,5.68
2023-04-21T22:26:57.462Z,5.60
2023-04-21T22:32:00.877Z,5.47
2023-04-21T22:37:05.938Z,6.07
2023-04-21T22:42:08.751Z,6.20
2023-04-21T22:47:12.470Z,5.45
2023-04-21T22:52:15.463Z,5.82
2023-04-21T22:57:18.419Z,6.05
2023-04-21T23:02:21.959Z,6.40
2023-04-21T23:07:24.913Z,6.38
2023-04-21T23:12:27.814Z,6.40
2023-04-21T23:17:31.007Z,6.70
2023-04-21T23:22:33.744Z,6.43
2023-04-21T23:27:36.573Z,6.43
2023-04-21T23:32:39.581Z,7.10
2023-04-21T23:37:42.468Z,7.20
2023-04-21T23:42:47.505Z,7.00
2023-04-21T23:47:50.784Z,7.13
2023-04-21T23:52:53.681Z,7.10
2023-04-21T23:57:56.443Z,6.70
